Time;durP1;ratioP1;P1;durP2;ratioP2;P2;SDS_P1;SDS_P2;PMS_P1;PMS_P2;Temp;Humidity;BMP_temperature;BMP_pressure;BME280_temperature;BME280_humidity;BME280_pressure;Samples;Min_cycle;Max_cycle;Signal;HPM_P1;HPM_P2
2022/04/10 00:02:00;;;;;;;;;;;6.90;99.90;;;;;;4318398;33;45653;-88
2022/04/10 00:04:28;;;;;;;;;;;6.90;99.90;;;;;;4305416;33;42722;-89
2022/04/10 00:06:55;;;;;;;;;;;6.90;99.90;;;;;;4318795;33;44029;-90
2022/04/10 00:09:22;;;;;;;;;;;6.90;99.90;;;;;;4305626;33;45461;-89
2022/04/10 00:11:49;;;;;;;;;;;6.90;99.90;;;;;;4305557;33;44496;-89
2022/04/10 00:14:16;;;;;;;;;;;6.90;99.90;;;;;;4318268;33;45999;-89
2022/04/10 00:16:43;;;;;;;;;;;6.90;99.90;;;;;;4318609;33;43654;-89
2022/04/10 00:19:10;;;;;;;;;;;6.90;99.90;;;;;;4305628;33;43960;-88
2022/04/10 00:21:37;;;;;;;;;;;6.90;99.90;;;;;;4318309;33;43295;-88
2022/04/10 00:24:04;;;;;;;;;;;6.80;99.90;;;;;;4304874;33;43071;-88
2022/04/10 00:26:31;;;;;;;;;;;6.80;99.90;;;;;;4305429;33;44721;-88
2022/04/10 00:28:59;;;;;;;;;;;6.80;99.90;;;;;;4304832;33;42348;-88
2022/04/10 00:31:26;;;;;;;;;;;6.80;99.90;;;;;;4317841;33;43302;-88
2022/04/10 00:33:53;;;;;;;;;;;6.80;99.90;;;;;;4304759;33;43494;-88
2022/04/10 00:36:20;;;;;;;;;;;6.80;99.90;;;;;;4305030;33;44986;-88
2022/04/10 00:38:47;;;;;;;;;;;6.80;99.90;;;;;;4318254;33;44957;-88
2022/04/10 00:41:14;;;;;;;;;;;6.80;99.90;;;;;;4304838;33;42760;-88
2022/04/10 00:44:00;;;;;;;;;;;6.80;99.90;;;;;;4304987;33;43845;-89
2022/04/10 00:46:27;;;;;;;;;;;6.80;99.90;;;;;;4305155;33;43731;-88
2022/04/10 00:48:54;;;;;;;;;;;6.70;99.90;;;;;;4304962;33;45973;-88
2022/04/10 00:54:09;;;;;;;;;;;6.80;99.90;;;;;;4318428;33;43659;-88
2022/04/10 00:56:36;;;;;;;;;;;6.70;99.90;;;;;;4317880;33;43309;-88
2022/04/10 00:59:04;;;;;;;;;;;6.80;99.90;;;;;;4304794;33;44240;-88
2022/04/10 01:01:31;;;;;;;;;;;6.70;99.90;;;;;;4304198;33;45773;-88
2022/04/10 01:04:16;;;;;;;;;;;6.70;99.90;;;;;;4306389;33;43062;-88
2022/04/10 01:06:46;;;;;;;;;;;6.70;99.90;;;;;;4304747;33;42904;-88
2022/04/10 01:09:14;;;;;;;;;;;6.70;99.90;;;;;;4317435;33;43051;-88
2022/04/10 01:11:41;;;;;;;;;;;6.70;99.90;;;;;;4304727;33;43482;-88
2022/04/10 01:14:09;;;;;;;;;;;6.70;99.90;;;;;;4317951;33;43878;-88
2022/04/10 01:16:36;;;;;;;;;;;6.70;99.90;;;;;;4304388;33;43309;-88
2022/04/10 01:19:04;;;;;;;;;;;6.60;99.90;;;;;;4317188;33;43614;-88
2022/04/10 01:21:32;;;;;;;;;;;6.70;99.90;;;;;;4304483;33;44786;-88
2022/04/10 01:23:59;;;;;;;;;;;6.60;99.90;;;;;;4304460;33;46084;-88
2022/04/10 01:26:27;;;;;;;;;;;6.70;99.90;;;;;;4304450;33;44115;-88
2022/04/10 01:29:03;;;;;;;;;;;6.60;99.90;;;;;;4303970;33;42597;-88
2022/04/10 01:31:31;;;;;;;;;;;6.60;99.90;;;;;;4304402;33;44535;-88
2022/04/10 01:34:06;;;;;;;;;;;6.60;99.90;;;;;;4304336;33;44171;-87
2022/04/10 01:36:34;;;;;;;;;;;6.60;99.90;;;;;;4304451;33;44004;-87
2022/04/10 01:39:02;;;;;;;;;;;6.60;99.90;;;;;;4317322;33;43953;-87
2022/04/10 01:41:30;;;;;;;;;;;6.60;99.90;;;;;;4316931;33;42020;-87
2022/04/10 01:43:57;;;;;;;;;;;6.70;99.90;;;;;;4303867;33;44228;-87
2022/04/10 01:46:25;;;;;;;;;;;6.60;99.90;;;;;;4304241;33;43356;-87
2022/04/10 01:48:52;;;;;;;;;;;6.70;99.90;;;;;;4317068;33;42813;-87
2022/04/10 01:51:19;;;;;;;;;;;6.70;99.90;;;;;;4303935;33;44084;-87
2022/04/10 01:53:46;;;;;;;;;;;6.70;99.90;;;;;;4317120;33;44065;-87
2022/04/10 01:56:13;;;;;;;;;;;6.60;99.90;;;;;;4303570;33;45119;-87
2022/04/10 01:58:41;;;;;;;;;;;6.60;99.90;;;;;;4316952;33;42245;-87
2022/04/10 02:01:10;;;;;;;;;;;6.60;99.90;;;;;;4316680;33;43941;-87
2022/04/10 02:03:37;;;;;;;;;;;6.60;99.90;;;;;;4316333;33;45896;-87
2022/04/10 02:06:06;;;;;;;;;;;6.60;99.90;;;;;;4302683;33;42566;-87
2022/04/10 02:08:35;;;;;;;;;;;6.60;99.90;;;;;;4302866;33;44617;-88
2022/04/10 02:11:10;;;;;;;;;;;6.60;99.90;;;;;;4302696;33;45695;-87
2022/04/10 02:13:37;;;;;;;;;;;6.70;99.90;;;;;;4302951;33;44127;-87
2022/04/10 02:16:10;;;;;;;;;;;6.70;99.90;;;;;;4302628;33;43860;-87
2022/04/10 02:18:37;;;;;;;;;;;6.70;99.90;;;;;;4302598;33;44609;-88
2022/04/10 02:21:04;;;;;;;;;;;6.70;99.90;;;;;;4315796;33;43308;-88
2022/04/10 02:23:32;;;;;;;;;;;6.60;99.90;;;;;;4302510;33;45823;-88
2022/04/10 02:25:59;;;;;;;;;;;6.60;99.90;;;;;;4316313;33;43295;-87
2022/04/10 02:28:26;;;;;;;;;;;6.70;99.90;;;;;;4302442;33;46061;-87
2022/04/10 02:30:53;;;;;;;;;;;6.70;99.90;;;;;;4316012;33;43346;-87
2022/04/10 02:33:20;;;;;;;;;;;6.60;99.90;;;;;;4303003;33;44104;-88
2022/04/10 02:35:47;;;;;;;;;;;6.70;99.90;;;;;;4315765;33;44101;-87
2022/04/10 02:38:16;;;;;;;;;;;6.70;99.90;;;;;;4302393;33;44087;-87
2022/04/10 02:40:43;;;;;;;;;;;6.70;99.90;;;;;;4302550;33;44744;-87
2022/04/10 02:43:10;;;;;;;;;;;6.60;99.90;;;;;;4302707;33;45181;-87
2022/04/10 02:45:37;;;;;;;;;;;6.60;99.90;;;;;;4302755;33;42432;-87
2022/04/10 02:48:05;;;;;;;;;;;6.60;99.90;;;;;;4302267;33;44889;-87
2022/04/10 02:50:32;;;;;;;;;;;6.60;99.90;;;;;;4302889;33;46238;-88
2022/04/10 02:52:59;;;;;;;;;;;6.60;99.90;;;;;;4315746;33;44778;-88
2022/04/10 02:55:26;;;;;;;;;;;6.60;99.90;;;;;;4302659;33;44731;-88
2022/04/10 02:57:53;;;;;;;;;;;6.60;99.90;;;;;;4302164;33;44164;-88
2022/04/10 03:00:20;;;;;;;;;;;6.60;99.90;;;;;;4302613;33;44829;-88
2022/04/10 03:02:47;;;;;;;;;;;6.50;99.90;;;;;;4315917;33;43929;-88
2022/04/10 03:05:15;;;;;;;;;;;6.50;99.90;;;;;;4315843;33;43930;-88
2022/04/10 03:07:42;;;;;;;;;;;6.50;99.90;;;;;;4302688;33;42502;-88
2022/04/10 03:10:09;;;;;;;;;;;6.50;99.90;;;;;;4315679;33;43779;-88
2022/04/10 03:12:36;;;;;;;;;;;6.50;99.90;;;;;;4303195;33;43477;-88
2022/04/10 03:15:04;;;;;;;;;;;6.50;99.90;;;;;;4302968;33;42765;-88
2022/04/10 03:17:31;;;;;;;;;;;6.50;99.90;;;;;;4302930;33;43874;-87
2022/04/10 03:19:58;;;;;;;;;;;6.50;99.90;;;;;;4302743;33;43410;-88
2022/04/10 03:22:25;;;;;;;;;;;6.50;99.90;;;;;;4302801;33;43290;-88
2022/04/10 03:24:52;;;;;;;;;;;6.50;99.90;;;;;;4315747;33;43361;-88
2022/04/10 03:27:19;;;;;;;;;;;6.50;99.90;;;;;;4302952;33;45350;-89
2022/04/10 03:29:46;;;;;;;;;;;6.50;99.90;;;;;;4301909;33;42653;-88
2022/04/10 03:32:13;;;;;;;;;;;6.50;99.90;;;;;;4315597;33;44183;-88
2022/04/10 03:34:40;;;;;;;;;;;6.50;99.90;;;;;;4302699;33;43019;-88
2022/04/10 03:37:07;;;;;;;;;;;6.50;99.90;;;;;;4315813;33;42826;-88
2022/04/10 03:39:34;;;;;;;;;;;6.50;99.90;;;;;;4302467;33;42954;-88
2022/04/10 03:42:01;;;;;;;;;;;6.50;99.90;;;;;;4302744;33;45938;-87
2022/04/10 03:44:28;;;;;;;;;;;6.50;99.90;;;;;;4302365;33;43315;-88
2022/04/10 03:46:55;;;;;;;;;;;6.50;99.90;;;;;;4302744;33;43223;-88
2022/04/10 03:49:23;;;;;;;;;;;6.50;99.90;;;;;;4302497;33;43298;-88
2022/04/10 03:51:50;;;;;;;;;;;6.50;99.90;;;;;;4302328;33;44564;-88
2022/04/10 03:54:17;;;;;;;;;;;6.50;99.90;;;;;;4302794;33;43376;-88
2022/04/10 03:56:44;;;;;;;;;;;6.50;99.90;;;;;;4302865;33;44985;-89
2022/04/10 03:59:11;;;;;;;;;;;6.50;99.90;;;;;;4302415;33;44233;-88
2022/04/10 04:01:38;;;;;;;;;;;6.50;99.90;;;;;;4302189;33;44910;-88
2022/04/10 04:04:05;;;;;;;;;;;6.40;99.90;;;;;;4315335;33;44223;-88
2022/04/10 04:06:32;;;;;;;;;;;6.40;99.90;;;;;;4315512;33;44102;-88
2022/04/10 04:08:59;;;;;;;;;;;6.40;99.90;;;;;;4302394;33;43459;-89
2022/04/10 04:11:26;;;;;;;;;;;6.50;99.90;;;;;;4302891;33;43513;-89
2022/04/10 04:13:55;;;;;;;;;;;6.40;99.90;;;;;;4302377;33;44223;-88
2022/04/10 04:16:22;;;;;;;;;;;6.40;99.90;;;;;;4302716;33;45633;-88
2022/04/10 04:18:49;;;;;;;;;;;6.40;99.90;;;;;;4302356;33;43306;-88
2022/04/10 04:21:17;;;;;;;;;;;6.40;99.90;;;;;;4302752;33;45726;-88
2022/04/10 04:23:44;;;;;;;;;;;6.40;99.90;;;;;;4302567;33;45536;-88
2022/04/10 04:26:11;;;;;;;;;;;6.40;99.90;;;;;;4315236;33;44248;-88
2022/04/10 04:28:38;;;;;;;;;;;6.40;99.90;;;;;;4315870;33;42954;-87
2022/04/10 04:31:05;;;;;;;;;;;6.40;99.90;;;;;;4315793;33;45913;-88
2022/04/10 04:33:32;;;;;;;;;;;6.30;99.90;;;;;;4315363;33;43241;-88
2022/04/10 04:35:59;;;;;;;;;;;6.30;99.90;;;;;;4315157;33;45667;-88
2022/04/10 04:38:27;;;;;;;;;;;6.30;99.90;;;;;;4302016;33;45899;-88
2022/04/10 04:40:54;;;;;;;;;;;6.30;99.90;;;;;;4302224;33;44195;-88
2022/04/10 04:43:22;;;;;;;;;;;6.30;99.90;;;;;;4304713;33;44027;-88
2022/04/10 04:45:49;;;;;;;;;;;6.20;99.90;;;;;;4305292;33;44240;-88
2022/04/10 04:48:16;;;;;;;;;;;6.20;99.90;;;;;;4318084;33;43332;-88
2022/04/10 04:50:44;;;;;;;;;;;6.20;99.90;;;;;;4304720;33;44144;-88
2022/04/10 04:53:11;;;;;;;;;;;6.20;99.90;;;;;;4304914;33;44743;-88
2022/04/10 04:55:38;;;;;;;;;;;6.20;99.90;;;;;;4304569;33;42737;-88
2022/04/10 04:58:05;;;;;;;;;;;6.10;99.90;;;;;;4305157;33;44196;-88
2022/04/10 05:00:32;;;;;;;;;;;6.10;99.90;;;;;;4304360;33;44645;-88
2022/04/10 05:02:59;;;;;;;;;;;6.20;99.90;;;;;;4304286;33;44061;-88
2022/04/10 05:05:26;;;;;;;;;;;6.10;99.90;;;;;;4317868;33;43078;-88
2022/04/10 05:07:53;;;;;;;;;;;6.10;99.90;;;;;;4304719;33;43218;-88
2022/04/10 05:10:20;;;;;;;;;;;6.10;99.90;;;;;;4304354;33;44833;-88
2022/04/10 05:12:47;;;;;;;;;;;6.10;99.90;;;;;;4304731;33;45754;-88
2022/04/10 05:15:14;;;;;;;;;;;6.00;99.90;;;;;;4317510;33;45722;-88
2022/04/10 05:17:41;;;;;;;;;;;6.00;99.90;;;;;;4317739;33;44280;-88
2022/04/10 05:20:08;;;;;;;;;;;6.00;99.90;;;;;;4304632;33;44392;-88
2022/04/10 05:22:35;;;;;;;;;;;6.00;99.90;;;;;;4317197;33;44239;-88
2022/04/10 05:25:03;;;;;;;;;;;6.00;99.90;;;;;;4317499;33;44606;-88
2022/04/10 05:27:30;;;;;;;;;;;6.00;99.90;;;;;;4317357;33;43642;-87
2022/04/10 05:29:57;;;;;;;;;;;6.00;99.90;;;;;;4303909;33;45809;-88
2022/04/10 05:32:24;;;;;;;;;;;6.00;99.90;;;;;;4304403;33;45692;-88
2022/04/10 05:34:51;;;;;;;;;;;6.00;99.90;;;;;;4304321;33;43512;-88
2022/04/10 05:37:18;;;;;;;;;;;6.00;99.90;;;;;;4303902;33;45709;-88
2022/04/10 05:39:45;;;;;;;;;;;6.00;99.90;;;;;;4317509;33;45917;-88
2022/04/10 05:42:12;;;;;;;;;;;6.00;99.90;;;;;;4304346;33;43501;-88
2022/04/10 05:44:39;;;;;;;;;;;6.00;99.90;;;;;;4317085;33;44763;-88
2022/04/10 05:47:06;;;;;;;;;;;6.00;99.90;;;;;;4304339;33;45749;-88
2022/04/10 05:49:33;;;;;;;;;;;5.90;99.90;;;;;;4317236;33;43306;-88
2022/04/10 05:52:00;;;;;;;;;;;5.90;99.90;;;;;;4303610;33;44641;-88
2022/04/10 05:54:32;;;;;;;;;;;5.90;99.90;;;;;;4303739;33;43362;-88
2022/04/10 05:56:59;;;;;;;;;;;5.90;99.90;;;;;;4303966;33;43577;-88
2022/04/10 05:59:26;;;;;;;;;;;5.90;99.90;;;;;;4316566;33;44516;-88
2022/04/10 06:01:54;;;;;;;;;;;5.90;99.90;;;;;;4303418;33;43356;-88
2022/04/10 06:04:21;;;;;;;;;;;5.90;99.90;;;;;;4303830;33;44692;-88
2022/04/10 06:06:49;;;;;;;;;;;5.80;99.90;;;;;;4303643;33;44935;-88
2022/04/10 06:09:16;;;;;;;;;;;5.90;99.90;;;;;;4303707;33;43789;-88
2022/04/10 06:11:43;;;;;;;;;;;5.90;99.90;;;;;;4303954;33;44382;-88
2022/04/10 06:14:10;;;;;;;;;;;5.90;99.90;;;;;;4316978;33;44218;-88
2022/04/10 06:16:37;;;;;;;;;;;5.90;99.90;;;;;;4303252;33;42685;-88
2022/04/10 06:19:04;;;;;;;;;;;5.90;99.90;;;;;;4303693;33;44466;-87
2022/04/10 06:21:31;;;;;;;;;;;5.90;99.90;;;;;;4303875;33;43188;-87
2022/04/10 06:24:01;;;;;;;;;;;5.90;99.90;;;;;;4303177;33;44186;-87
2022/04/10 06:26:28;;;;;;;;;;;5.90;99.90;;;;;;4303966;33;43412;-88
2022/04/10 06:28:56;;;;;;;;;;;5.90;99.90;;;;;;4303345;33;45054;-87
2022/04/10 06:31:23;;;;;;;;;;;6.00;99.90;;;;;;4303411;33;44137;-88
2022/04/10 06:33:51;;;;;;;;;;;6.00;99.90;;;;;;4303172;33;43257;-88
2022/04/10 06:36:18;;;;;;;;;;;5.90;99.90;;;;;;4303451;33;45887;-88
2022/04/10 06:38:46;;;;;;;;;;;6.00;99.90;;;;;;4316333;33;42810;-88
2022/04/10 06:41:13;;;;;;;;;;;6.00;99.90;;;;;;4302983;33;44120;-88
2022/04/10 06:43:40;;;;;;;;;;;6.00;99.90;;;;;;4316428;33;45992;-87
2022/04/10 06:46:08;;;;;;;;;;;5.90;99.90;;;;;;4302895;33;43288;-88
2022/04/10 06:48:36;;;;;;;;;;;6.00;99.90;;;;;;4303424;33;45137;-87
2022/04/10 06:51:03;;;;;;;;;;;6.00;99.90;;;;;;4303070;33;44177;-87
2022/04/10 06:53:30;;;;;;;;;;;6.00;99.90;;;;;;4302996;33;44953;-87
2022/04/10 06:55:58;;;;;;;;;;;6.10;99.90;;;;;;4303003;33;44291;-88
2022/04/10 06:58:25;;;;;;;;;;;6.00;99.90;;;;;;4316299;33;43020;-87
2022/04/10 07:00:52;;;;;;;;;;;6.10;99.90;;;;;;4303052;33;43246;-88
2022/04/10 07:03:20;;;;;;;;;;;6.10;99.90;;;;;;4315723;33;44972;-88
2022/04/10 07:05:48;;;;;;;;;;;6.10;99.90;;;;;;4315664;33;45721;-88
2022/04/10 07:08:15;;;;;;;;;;;6.10;99.90;;;;;;4303335;33;44969;-88
2022/04/10 07:10:42;;;;;;;;;;;6.10;99.90;;;;;;4303166;33;45715;-87
2022/04/10 07:13:09;;;;;;;;;;;6.10;99.90;;;;;;4303073;33;43271;-87
2022/04/10 07:15:37;;;;;;;;;;;6.20;99.90;;;;;;4302724;33;43005;-87
2022/04/10 07:18:05;;;;;;;;;;;6.20;99.90;;;;;;4302540;33;44794;-87
2022/04/10 07:20:32;;;;;;;;;;;6.20;99.90;;;;;;4302762;33;43225;-88
2022/04/10 07:25:45;;;;;;;;;;;6.20;99.90;;;;;;4315851;33;42673;-88
2022/04/10 07:28:13;;;;;;;;;;;6.20;99.90;;;;;;4302839;33;44361;-88
2022/04/10 07:30:40;;;;;;;;;;;6.20;99.90;;;;;;4302499;33;43951;-87
2022/04/10 07:33:08;;;;;;;;;;;6.20;99.90;;;;;;4302832;33;43894;-88
2022/04/10 07:35:42;;;;;;;;;;;6.20;99.90;;;;;;4315753;33;43184;-88
2022/04/10 07:38:13;;;;;;;;;;;6.30;99.90;;;;;;4316101;33;43904;-88
2022/04/10 07:40:40;;;;;;;;;;;6.30;99.90;;;;;;4302390;33;43498;-88
2022/04/10 07:43:07;;;;;;;;;;;6.30;99.90;;;;;;4302981;33;45134;-87
2022/04/10 07:48:20;;;;;;;;;;;6.30;99.90;;;;;;4316034;33;45059;-88
2022/04/10 07:50:47;;;;;;;;;;;6.30;99.90;;;;;;4315386;33;44151;-87
2022/04/10 07:53:14;;;;;;;;;;;6.30;99.90;;;;;;4316329;33;20048;-87
2022/04/10 07:55:41;;;;;;;;;;;6.30;99.90;;;;;;4302481;33;45057;-88
2022/04/10 07:58:08;;;;;;;;;;;6.30;99.90;;;;;;4315459;33;43019;-87
2022/04/10 08:00:35;;;;;;;;;;;6.30;99.90;;;;;;4302734;33;43478;-87
2022/04/10 08:03:02;;;;;;;;;;;6.30;99.90;;;;;;4315544;33;43541;-88
2022/04/10 08:05:29;;;;;;;;;;;6.30;99.90;;;;;;4315642;33;43687;-87
2022/04/10 08:07:57;;;;;;;;;;;6.30;99.90;;;;;;4302299;33;44176;-87
2022/04/10 08:10:24;;;;;;;;;;;6.30;99.90;;;;;;4302341;33;45854;-88
2022/04/10 08:12:51;;;;;;;;;;;6.30;99.90;;;;;;4302260;33;44315;-87
2022/04/10 08:15:19;;;;;;;;;;;6.40;99.90;;;;;;4302406;33;44785;-87
2022/04/10 08:17:46;;;;;;;;;;;6.40;99.90;;;;;;4304651;33;43128;-87
2022/04/10 08:20:13;;;;;;;;;;;6.40;99.90;;;;;;4304846;33;42333;-87
2022/04/10 08:22:40;;;;;;;;;;;6.40;99.90;;;;;;4304849;33;45291;-87
2022/04/10 08:25:08;;;;;;;;;;;6.40;99.90;;;;;;4317876;33;43415;-87
2022/04/10 08:27:36;;;;;;;;;;;6.50;99.90;;;;;;4305012;33;42638;-88
2022/04/10 08:30:03;;;;;;;;;;;6.40;99.90;;;;;;4305113;33;42513;-88
2022/04/10 08:32:38;;;;;;;;;;;6.40;99.90;;;;;;4304831;33;43522;-88
2022/04/10 08:35:05;;;;;;;;;;;6.40;99.90;;;;;;4304841;33;43893;-87
2022/04/10 08:37:33;;;;;;;;;;;6.40;99.90;;;;;;4304851;33;43978;-87
2022/04/10 08:40:00;;;;;;;;;;;6.40;99.90;;;;;;4304748;33;44192;-88
2022/04/10 08:42:27;;;;;;;;;;;6.50;99.90;;;;;;4304626;33;45419;-88
2022/04/10 08:44:55;;;;;;;;;;;6.50;99.90;;;;;;4317959;33;45765;-87
2022/04/10 08:47:22;;;;;;;;;;;6.50;99.90;;;;;;4318017;33;42294;-88
2022/04/10 08:49:50;;;;;;;;;;;6.50;99.90;;;;;;4304515;33;42431;-87
2022/04/10 08:52:17;;;;;;;;;;;6.50;99.90;;;;;;4304416;33;44144;-88
2022/04/10 08:54:45;;;;;;;;;;;6.50;99.90;;;;;;4318286;33;43827;-88
2022/04/10 08:57:12;;;;;;;;;;;6.60;99.90;;;;;;4305048;33;44826;-88
2022/04/10 08:59:40;;;;;;;;;;;6.50;99.90;;;;;;4304445;33;45724;-87
2022/04/10 09:02:07;;;;;;;;;;;6.50;99.90;;;;;;4317204;33;43791;-87
2022/04/10 09:04:34;;;;;;;;;;;6.60;99.90;;;;;;4304243;33;42147;-87
2022/04/10 09:07:07;;;;;;;;;;;6.50;99.90;;;;;;4317801;33;45920;-87
2022/04/10 09:09:35;;;;;;;;;;;6.50;99.90;;;;;;4317693;33;44380;-87
2022/04/10 09:12:03;;;;;;;;;;;6.50;99.90;;;;;;4304651;33;44205;-87
2022/04/10 09:14:38;;;;;;;;;;;6.50;99.90;;;;;;4317609;33;42855;-87
2022/04/10 09:17:24;;;;;;;;;;;6.50;99.90;;;;;;4305177;33;44781;-86
2022/04/10 09:19:52;;;;;;;;;;;6.60;99.90;;;;;;4304253;33;45077;-87
2022/04/10 09:22:24;;;;;;;;;;;6.60;99.90;;;;;;4317276;33;43400;-87
2022/04/10 09:25:00;;;;;;;;;;;6.60;99.90;;;;;;4304359;33;44014;-87
2022/04/10 09:27:29;;;;;;;;;;;6.60;99.90;;;;;;4317152;33;42735;-87
2022/04/10 09:29:57;;;;;;;;;;;6.60;99.90;;;;;;4317022;33;43570;-86
2022/04/10 09:32:37;;;;;;;;;;;6.60;99.90;;;;;;4304427;33;44770;-86
2022/04/10 09:35:04;;;;;;;;;;;6.60;99.90;;;;;;4304370;33;45724;-86
2022/04/10 09:38:04;;;;;;;;;;;6.60;99.90;;;;;;4303809;33;42966;-86
2022/04/10 09:40:32;;;;;;;;;;;6.60;99.90;;;;;;4272698;33;43074;-86
2022/04/10 09:43:00;;;;;;;;;;;6.60;99.90;;;;;;4317413;33;44246;-86
2022/04/10 09:45:31;;;;;;;;;;;6.70;99.90;;;;;;4304149;33;44153;-86
2022/04/10 09:48:15;;;;;;;;;;;6.60;99.90;;;;;;4304249;33;43896;-87
2022/04/10 09:50:43;;;;;;;;;;;6.60;99.90;;;;;;4317716;33;44035;-87
2022/04/10 09:53:11;;;;;;;;;;;6.70;99.90;;;;;;4316752;33;44899;-86
2022/04/10 09:55:39;;;;;;;;;;;6.70;99.90;;;;;;4304450;33;20006;-86
2022/04/10 09:58:07;;;;;;;;;;;6.70;99.90;;;;;;4303618;33;44648;-86
2022/04/10 10:00:39;;;;;;;;;;;6.70;99.90;;;;;;4303891;33;43590;-87
2022/04/10 10:03:07;;;;;;;;;;;6.70;99.90;;;;;;4303612;33;42867;-87
2022/04/10 10:05:35;;;;;;;;;;;6.70;99.90;;;;;;4317161;33;43853;-86
2022/04/10 10:08:03;;;;;;;;;;;6.70;99.90;;;;;;4303546;33;44658;-86
2022/04/10 10:10:30;;;;;;;;;;;6.70;99.90;;;;;;4317150;33;43414;-86
2022/04/10 10:13:01;;;;;;;;;;;6.70;99.90;;;;;;4303803;33;43490;-86
2022/04/10 10:15:36;;;;;;;;;;;6.70;99.90;;;;;;4304324;33;43017;-86
2022/04/10 10:18:05;;;;;;;;;;;6.80;99.90;;;;;;4303988;33;44249;-85
2022/04/10 10:20:32;;;;;;;;;;;6.80;99.90;;;;;;4303222;33;44095;-85
2022/04/10 10:23:04;;;;;;;;;;;6.80;99.90;;;;;;4303221;33;43245;-85
2022/04/10 10:25:34;;;;;;;;;;;6.80;99.90;;;;;;4303377;33;44255;-85
2022/04/10 10:28:04;;;;;;;;;;;6.80;99.90;;;;;;4316784;33;45422;-85
2022/04/10 10:30:44;;;;;;;;;;;6.80;99.90;;;;;;4303432;33;45899;-85
2022/04/10 10:33:19;;;;;;;;;;;6.80;99.90;;;;;;4317042;33;43007;-86
2022/04/10 10:35:55;;;;;;;;;;;6.90;99.90;;;;;;4303582;33;43501;-85
2022/04/10 10:38:23;;;;;;;;;;;6.90;99.90;;;;;;4302843;33;44325;-85
2022/04/10 10:40:51;;;;;;;;;;;6.90;99.90;;;;;;4315891;33;43295;-85
2022/04/10 10:43:20;;;;;;;;;;;6.90;99.90;;;;;;4316161;33;43841;-85
2022/04/10 10:45:48;;;;;;;;;;;7.00;99.90;;;;;;4302876;33;44188;-86
2022/04/10 10:48:37;;;;;;;;;;;7.00;99.90;;;;;;4305461;33;46343;-86
2022/04/10 10:51:11;;;;;;;;;;;7.00;99.90;;;;;;4303320;33;43478;-85
2022/04/10 10:53:47;;;;;;;;;;;7.00;99.90;;;;;;4303316;33;43991;-86
2022/04/10 10:56:17;;;;;;;;;;;7.00;99.90;;;;;;4304460;33;19998;-86
2022/04/10 10:59:23;;;;;;;;;;;7.00;99.90;;;;;;4305319;33;45280;-85
2022/04/10 11:01:55;;;;;;;;;;;7.00;99.90;;;;;;4302375;33;44867;-86
2022/04/10 11:04:24;;;;;;;;;;;7.10;99.90;;;;;;4302712;33;43521;-86
2022/04/10 11:06:51;;;;;;;;;;;7.10;99.90;;;;;;4303152;33;44180;-86
2022/04/10 11:09:28;;;;;;;;;;;7.10;99.90;;;;;;4303145;33;43894;-86
2022/04/10 11:11:56;;;;;;;;;;;7.10;99.90;;;;;;4302920;33;43679;-86
2022/04/10 11:14:38;;;;;;;;;;;7.10;99.90;;;;;;4304370;33;46041;-85
2022/04/10 11:17:11;;;;;;;;;;;7.10;99.90;;;;;;4302602;33;42708;-85
2022/04/10 11:19:38;;;;;;;;;;;7.10;99.90;;;;;;4302737;33;44042;-85
2022/04/10 11:22:07;;;;;;;;;;;7.20;99.90;;;;;;4315898;33;45739;-85
2022/04/10 11:24:35;;;;;;;;;;;7.20;99.90;;;;;;4303232;33;43469;-86
2022/04/10 11:27:05;;;;;;;;;;;7.20;99.90;;;;;;4302386;33;44389;-85
2022/04/10 11:29:33;;;;;;;;;;;7.20;99.90;;;;;;4302458;33;44211;-85
2022/04/10 11:32:03;;;;;;;;;;;7.20;99.90;;;;;;4315690;33;43851;-85
2022/04/10 11:34:31;;;;;;;;;;;7.20;99.90;;;;;;4302858;33;45349;-85
2022/04/10 11:37:00;;;;;;;;;;;7.20;99.90;;;;;;4302795;33;43408;-85
2022/04/10 11:39:28;;;;;;;;;;;7.30;99.90;;;;;;4302812;33;45125;-85
2022/04/10 11:42:15;;;;;;;;;;;7.30;99.90;;;;;;4302495;33;44191;-85
2022/04/10 11:44:42;;;;;;;;;;;7.30;99.90;;;;;;4302739;33;42638;-85
2022/04/10 11:47:10;;;;;;;;;;;7.30;99.90;;;;;;4302577;33;44893;-85
2022/04/10 11:49:37;;;;;;;;;;;7.40;99.90;;;;;;4315447;33;43450;-85
2022/04/10 11:52:06;;;;;;;;;;;7.40;99.90;;;;;;4304103;33;46176;-85
2022/04/10 11:54:35;;;;;;;;;;;7.50;99.90;;;;;;4305254;33;43412;-84
2022/04/10 11:57:03;;;;;;;;;;;7.50;99.90;;;;;;4319927;33;20045;-84
2022/04/10 11:59:37;;;;;;;;;;;7.50;99.90;;;;;;4318172;33;44135;-85
2022/04/10 12:02:07;;;;;;;;;;;7.50;99.90;;;;;;4318274;33;44836;-85
2022/04/10 12:04:36;;;;;;;;;;;7.60;99.90;;;;;;4305090;33;46219;-85
2022/04/10 12:07:29;;;;;;;;;;;7.60;99.90;;;;;;4318689;33;44227;-85
2022/04/10 12:09:57;;;;;;;;;;;7.60;99.90;;;;;;4316061;33;42614;-85
2022/04/10 12:12:33;;;;;;;;;;;7.70;99.90;;;;;;4318543;33;43404;-85
2022/04/10 12:15:00;;;;;;;;;;;7.70;99.90;;;;;;4318124;33;43218;-80
2022/04/10 12:17:27;;;;;;;;;;;7.80;99.90;;;;;;4305417;33;44647;-83
2022/04/10 12:19:54;;;;;;;;;;;7.80;99.90;;;;;;4318003;33;45514;-83
2022/04/10 12:22:25;;;;;;;;;;;7.80;99.90;;;;;;4317957;33;44274;-83
2022/04/10 12:24:58;;;;;;;;;;;7.90;99.90;;;;;;4305242;33;43211;-83
2022/04/10 12:27:26;;;;;;;;;;;7.90;99.90;;;;;;4305560;33;20503;-83
2022/04/10 12:29:56;;;;;;;;;;;7.90;99.90;;;;;;4317782;33;45413;-82
2022/04/10 12:32:24;;;;;;;;;;;7.90;99.90;;;;;;4305095;33;44937;-82
2022/04/10 12:34:53;;;;;;;;;;;7.90;99.90;;;;;;4304781;33;44009;-82
2022/04/10 12:37:20;;;;;;;;;;;8.00;99.90;;;;;;4317693;33;44631;-83
2022/04/10 12:39:48;;;;;;;;;;;8.00;99.90;;;;;;4305064;33;43872;-83
2022/04/10 12:42:20;;;;;;;;;;;8.10;99.90;;;;;;4304718;33;43490;-82
2022/04/10 12:44:54;;;;;;;;;;;8.00;99.90;;;;;;4304861;33;43450;-83
2022/04/10 12:47:40;;;;;;;;;;;8.10;99.90;;;;;;4304926;33;45995;-82
2022/04/10 12:50:09;;;;;;;;;;;8.10;99.90;;;;;;4317970;33;43291;-82
2022/04/10 12:52:40;;;;;;;;;;;8.10;99.90;;;;;;4304977;33;43499;-83
2022/04/10 12:55:22;;;;;;;;;;;8.10;99.90;;;;;;4304433;33;44649;-82
2022/04/10 12:57:55;;;;;;;;;;;8.20;99.90;;;;;;4305511;33;20016;-83
2022/04/10 13:00:42;;;;;;;;;;;8.20;99.90;;;;;;4304817;33;43343;-83
2022/04/10 13:03:29;;;;;;;;;;;8.20;99.90;;;;;;4303928;33;44607;-83
2022/04/10 13:06:04;;;;;;;;;;;8.30;99.90;;;;;;4304547;33;43472;-83
2022/04/10 13:08:35;;;;;;;;;;;8.30;99.90;;;;;;4317898;33;43351;-83
2022/04/10 13:11:04;;;;;;;;;;;8.40;99.90;;;;;;4317194;33;42666;-83
2022/04/10 13:13:54;;;;;;;;;;;8.40;99.90;;;;;;4317856;33;44032;-83
2022/04/10 13:16:28;;;;;;;;;;;8.50;99.90;;;;;;4317590;33;43956;-83
2022/04/10 13:18:55;;;;;;;;;;;8.60;99.90;;;;;;4317259;33;43582;-83
2022/04/10 13:21:22;;;;;;;;;;;8.60;99.90;;;;;;4304140;33;43027;-83
2022/04/10 13:23:49;;;;;;;;;;;8.60;99.90;;;;;;4317300;33;42634;-83
2022/04/10 13:26:43;;;;;;;;;;;8.60;99.90;;;;;;4317291;33;44249;-83
2022/04/10 13:29:11;;;;;;;;;;;8.70;99.90;;;;;;4301974;33;42583;-83
2022/04/10 13:31:39;;;;;;;;;;;8.70;99.90;;;;;;4317475;33;44192;-83
2022/04/10 13:34:06;;;;;;;;;;;8.70;99.90;;;;;;4316981;33;44942;-83
2022/04/10 13:36:41;;;;;;;;;;;8.80;99.90;;;;;;4305098;33;43215;-83
2022/04/10 13:39:08;;;;;;;;;;;8.80;99.90;;;;;;4316986;33;43766;-83
2022/04/10 13:41:35;;;;;;;;;;;8.80;99.90;;;;;;4304041;33;43565;-82
2022/04/10 13:44:04;;;;;;;;;;;8.80;99.90;;;;;;4304346;33;44262;-82
2022/04/10 13:46:31;;;;;;;;;;;8.90;99.90;;;;;;4303607;33;43552;-83
2022/04/10 13:48:58;;;;;;;;;;;8.90;99.90;;;;;;4303631;33;43224;-83
2022/04/10 13:51:25;;;;;;;;;;;8.90;99.90;;;;;;4316747;33;43315;-84
2022/04/10 13:53:52;;;;;;;;;;;8.90;99.90;;;;;;4316824;33;43060;-83
2022/04/10 13:56:19;;;;;;;;;;;8.90;99.90;;;;;;4316976;33;43329;-83
2022/04/10 13:58:46;;;;;;;;;;;8.90;99.90;;;;;;4303858;33;43999;-83
2022/04/10 14:01:13;;;;;;;;;;;9.00;99.90;;;;;;4303262;33;44091;-84
2022/04/10 14:03:40;;;;;;;;;;;9.10;99.90;;;;;;4303993;33;45807;-83
2022/04/10 14:06:07;;;;;;;;;;;9.10;99.90;;;;;;4316626;33;43488;-83
2022/04/10 14:08:34;;;;;;;;;;;9.10;99.90;;;;;;4303984;33;45801;-83
2022/04/10 14:11:17;;;;;;;;;;;9.20;99.90;;;;;;4305797;33;44794;-83
2022/04/10 14:13:44;;;;;;;;;;;9.20;99.90;;;;;;4316366;33;42660;-83
2022/04/10 14:16:11;;;;;;;;;;;9.30;99.90;;;;;;4303423;33;44286;-83
2022/04/10 14:18:38;;;;;;;;;;;9.30;99.90;;;;;;4316630;33;43470;-83
2022/04/10 14:21:07;;;;;;;;;;;9.30;99.90;;;;;;4316824;33;44188;-83
2022/04/10 14:23:34;;;;;;;;;;;9.30;99.90;;;;;;4303750;33;44326;-83
2022/04/10 14:26:01;;;;;;;;;;;9.40;99.90;;;;;;4316172;33;45097;-84
2022/04/10 14:28:28;;;;;;;;;;;9.40;99.90;;;;;;4303066;33;44372;-83
2022/04/10 14:30:57;;;;;;;;;;;9.50;99.90;;;;;;4303210;33;43869;-83
2022/04/10 14:33:28;;;;;;;;;;;9.50;99.90;;;;;;4316589;33;43777;-83
2022/04/10 14:35:55;;;;;;;;;;;9.50;99.90;;;;;;4303334;33;44199;-83
2022/04/10 14:38:22;;;;;;;;;;;9.60;99.90;;;;;;4303469;33;43105;-83
2022/04/10 14:40:49;;;;;;;;;;;9.60;99.90;;;;;;4316545;33;44187;-84
2022/04/10 14:43:16;;;;;;;;;;;9.70;99.90;;;;;;4316100;33;43299;-83
2022/04/10 14:45:43;;;;;;;;;;;9.70;99.90;;;;;;4316203;33;42315;-83
2022/04/10 14:48:11;;;;;;;;;;;9.70;99.90;;;;;;4303031;33;44208;-83
2022/04/10 14:50:39;;;;;;;;;;;9.70;99.90;;;;;;4303211;33;44237;-83